createdAt,value
2022-09-17T00:01:04.212Z,98602.41
2022-09-17T00:03:31.851Z,98600.56
2022-09-17T00:06:06.076Z,98587.50
2022-09-17T00:08:34.004Z,98593.19
2022-09-17T00:11:08.478Z,98591.56
2022-09-17T00:13:35.019Z,98592.59
2022-09-17T00:16:01.858Z,98587.31
2022-09-17T00:18:28.397Z,98593.59
2022-09-17T00:20:54.860Z,98592.16
2022-09-17T00:23:21.540Z,98598.63
2022-09-17T00:25:47.988Z,98595.59
2022-09-17T00:28:14.823Z,98595.78
2022-09-17T00:30:43.729Z,98599.44
2022-09-17T00:33:13.232Z,98599.78
2022-09-17T00:35:40.057Z,98596.31
2022-09-17T00:38:06.671Z,98597.34
2022-09-17T00:40:33.317Z,98602.00
2022-09-17T00:43:00.163Z,98595.09
2022-09-17T00:45:27.770Z,98597.31
2022-09-17T00:47:58.745Z,98602.97
2022-09-17T00:50:41.140Z,98602.75
2022-09-17T00:53:17.170Z,98596.22
2022-09-17T00:55:48.716Z,98596.59
2022-09-17T00:58:18.742Z,98597.00
2022-09-17T01:00:47.231Z,98601.66
2022-09-17T01:03:14.309Z,98601.66
2022-09-17T01:06:04.891Z,98602.47
2022-09-17T01:08:38.962Z,98602.66
2022-09-17T01:11:31.730Z,98603.69
2022-09-17T01:14:22.089Z,98605.69
2022-09-17T01:16:55.505Z,98598.13
2022-09-17T01:19:49.983Z,98605.06
2022-09-17T01:22:25.530Z,98600.41
2022-09-17T01:25:07.213Z,98594.09
2022-09-17T01:28:02.062Z,98597.16
2022-09-17T01:30:59.469Z,98593.88
2022-09-17T01:33:41.329Z,98593.25
2022-09-17T01:36:29.638Z,98594.09
2022-09-17T01:39:12.441Z,98600.16
2022-09-17T01:41:50.964Z,98598.53
2022-09-17T01:44:26.350Z,98602.38
2022-09-17T01:46:58.055Z,98610.50
2022-09-17T01:49:25.869Z,98610.50
2022-09-17T01:51:54.698Z,98608.47
2022-09-17T01:54:28.511Z,98613.75
2022-09-17T01:57:02.063Z,98612.50
2022-09-17T01:59:37.766Z,98612.25
2022-09-17T02:02:13.329Z,98621.38
2022-09-17T02:04:58.522Z,98632.94
2022-09-17T02:07:25.991Z,98639.41
2022-09-17T02:10:02.352Z,98635.72
2022-09-17T02:12:35.544Z,98631.03
2022-09-17T02:15:07.511Z,98635.66
2022-09-17T02:17:42.352Z,98638.69
2022-09-17T02:20:09.850Z,98636.22
2022-09-17T02:22:43.159Z,98642.31
2022-09-17T02:25:24.830Z,98629.53
2022-09-17T02:28:05.037Z,98635.78
2022-09-17T02:30:32.478Z,98634.34
2022-09-17T02:33:02.133Z,98634.53
2022-09-17T02:35:32.015Z,98627.63
2022-09-17T02:37:59.533Z,98620.72
2022-09-17T02:40:31.562Z,98631.47
2022-09-17T02:43:13.643Z,98629.66
2022-09-17T02:46:12.127Z,98623.72
2022-09-17T02:49:01.286Z,98629.38
2022-09-17T02:51:33.683Z,98625.50
2022-09-17T02:54:15.922Z,98623.25
2022-09-17T02:56:51.911Z,98629.72
2022-09-17T02:59:24.868Z,98625.25
2022-09-17T03:02:00.204Z,98628.69
2022-09-17T03:04:28.669Z,98633.00
2022-09-17T03:06:55.977Z,98633.00
2022-09-17T03:09:22.469Z,98633.16
2022-09-17T03:11:49.072Z,98635.19
2022-09-17T03:14:15.516Z,98635.78
2022-09-17T03:16:41.998Z,98637.88
2022-09-17T03:19:08.485Z,98638.69
2022-09-17T03:21:34.953Z,98636.25
2022-09-17T03:24:01.678Z,98636.88
2022-09-17T03:26:28.134Z,98638.31
2022-09-17T03:28:55.534Z,98635.09
2022-09-17T03:31:22.008Z,98639.00
2022-09-17T03:33:48.551Z,98635.97
2022-09-17T03:36:15.002Z,98636.06
2022-09-17T03:38:41.444Z,98632.63
2022-09-17T03:41:08.019Z,98636.38
2022-09-17T03:43:34.891Z,98633.16
2022-09-17T03:46:01.762Z,98638.88
2022-09-17T03:48:29.667Z,98640.94
2022-09-17T03:50:56.805Z,98642.78
2022-09-17T03:53:23.703Z,98646.69
2022-09-17T03:55:50.338Z,98649.56
2022-09-17T03:58:16.821Z,98661.56
2022-09-17T04:03:55.219Z,98659.56
2022-09-17T04:06:21.866Z,98662.44
2022-09-17T04:08:48.377Z,98657.38
2022-09-17T04:11:14.865Z,98658.25
2022-09-17T04:13:41.354Z,98668.03
2022-09-17T04:16:08.114Z,98666.50
2022-09-17T04:18:34.763Z,98659.81
2022-09-17T04:21:01.347Z,98669.38
2022-09-17T04:23:27.954Z,98669.56
2022-09-17T04:25:55.514Z,98662.47
2022-09-17T04:28:23.568Z,98657.19
2022-09-17T04:30:50.041Z,98671.00
2022-09-17T04:33:16.485Z,98656.53
2022-09-17T04:35:43.511Z,98660.19
2022-09-17T04:38:10.156Z,98661.81
2022-09-17T04:40:36.736Z,98656.75
2022-09-17T04:43:04.090Z,98664.22
2022-09-17T04:45:33.385Z,98663.78
2022-09-17T04:48:00.157Z,98669.63
2022-09-17T04:50:26.735Z,98673.66
2022-09-17T04:52:53.206Z,98681.38
2022-09-17T04:55:19.703Z,98678.16
2022-09-17T04:57:51.781Z,98683.72
2022-09-17T05:00:20.165Z,98691.44
2022-09-17T05:02:51.988Z,98686.81
2022-09-17T05:05:19.721Z,98692.72
2022-09-17T05:07:46.821Z,98687.88
2022-09-17T05:10:16.840Z,98685.66
2022-09-17T05:12:48.655Z,98686.91
2022-09-17T05:15:15.318Z,98685.69
2022-09-17T05:17:42.096Z,98686.91
2022-09-17T05:20:09.832Z,98687.56
2022-09-17T05:22:40.074Z,98690.00
2022-09-17T05:25:06.791Z,98690.41
2022-09-17T05:27:33.318Z,98689.34
2022-09-17T05:29:59.762Z,98687.47
2022-09-17T05:32:26.287Z,98698.06
2022-09-17T05:34:52.797Z,98695.19
2022-09-17T05:37:19.232Z,98698.66
2022-09-17T05:39:46.325Z,98695.84
2022-09-17T05:42:12.886Z,98703.19
2022-09-17T05:44:39.422Z,98713.56
2022-09-17T05:47:05.917Z,98710.09
2022-09-17T05:49:32.528Z,98712.53
2022-09-17T05:51:58.973Z,98711.56
2022-09-17T05:54:25.439Z,98713.78
2022-09-17T05:56:55.165Z,98719.13
2022-09-17T05:59:22.308Z,98716.53
2022-09-17T06:01:50.800Z,98716.53
2022-09-17T06:04:19.905Z,98725.94
2022-09-17T06:06:46.411Z,98727.00
2022-09-17T06:09:12.883Z,98726.41
2022-09-17T06:11:39.333Z,98726.47
2022-09-17T06:14:05.847Z,98727.91
2022-09-17T06:16:32.380Z,98735.25
2022-09-17T06:18:59.160Z,98728.94
2022-09-17T06:21:25.643Z,98734.06
2022-09-17T06:23:52.219Z,98726.13
2022-09-17T06:26:18.781Z,98731.63
2022-09-17T06:28:45.521Z,98727.00
2022-09-17T06:31:13.241Z,98735.78
2022-09-17T06:33:40.580Z,98739.28
2022-09-17T06:36:13.643Z,98738.88
2022-09-17T06:38:41.458Z,98740.38
2022-09-17T06:41:08.488Z,98741.19
2022-09-17T06:43:34.952Z,98743.41
2022-09-17T06:46:05.889Z,98745.66
2022-09-17T06:48:34.561Z,98741.41
2022-09-17T06:51:06.781Z,98744.88
2022-09-17T06:53:34.076Z,98747.75
2022-09-17T06:56:05.998Z,98745.06
2022-09-17T06:58:33.895Z,98740.78
2022-09-17T07:01:01.854Z,98751.00
2022-09-17T07:03:29.777Z,98743.84
2022-09-17T07:05:57.372Z,98741.38
2022-09-17T07:08:24.142Z,98742.41
2022-09-17T07:10:50.587Z,98746.47
2022-09-17T07:13:17.177Z,98745.28
2022-09-17T07:15:43.712Z,98747.06
2022-09-17T07:18:11.717Z,98747.47
2022-09-17T07:20:39.187Z,98738.50
2022-09-17T07:23:05.637Z,98748.91
2022-09-17T07:25:32.168Z,98746.63
2022-09-17T07:27:59.662Z,98749.91
2022-09-17T07:30:26.207Z,98748.69
2022-09-17T07:32:52.657Z,98752.38
2022-09-17T07:35:19.316Z,98743.00
2022-09-17T07:37:45.833Z,98747.84
2022-09-17T07:40:12.329Z,98750.09
2022-09-17T07:42:38.831Z,98748.84
2022-09-17T07:45:06.627Z,98744.97
2022-09-17T07:47:38.784Z,98744.72
2022-09-17T07:50:06.641Z,98737.91
2022-09-17T07:52:33.089Z,98738.03
2022-09-17T07:54:59.544Z,98733.91
2022-09-17T07:57:25.976Z,98744.28
2022-09-17T07:59:52.602Z,98746.03
2022-09-17T08:02:24.121Z,98740.28
2022-09-17T08:04:51.168Z,98741.94
2022-09-17T08:07:17.658Z,98747.31
2022-09-17T08:09:44.218Z,98748.56
2022-09-17T08:12:10.641Z,98748.00
2022-09-17T08:14:37.381Z,98747.56
2022-09-17T08:17:07.373Z,98741.47
2022-09-17T08:19:34.065Z,98736.59
2022-09-17T08:22:00.676Z,98732.75
2022-09-17T08:24:30.131Z,98735.59
2022-09-17T08:26:57.221Z,98738.00
2022-09-17T08:29:23.886Z,98739.41
2022-09-17T08:31:50.757Z,98742.59
2022-09-17T08:34:17.652Z,98736.53
2022-09-17T08:36:44.197Z,98740.13
2022-09-17T08:39:12.409Z,98732.25
2022-09-17T08:42:02.196Z,98730.81
2022-09-17T08:44:47.738Z,98731.13
2022-09-17T08:47:33.411Z,98736.38
2022-09-17T08:50:03.596Z,98730.09
2022-09-17T08:52:59.623Z,98736.56
2022-09-17T08:55:50.173Z,98733.91
2022-09-17T08:58:35.472Z,98740.69
2022-09-17T09:01:31.308Z,98735.00
2022-09-17T09:04:29.161Z,98742.84
2022-09-17T09:07:02.713Z,98748.84
2022-09-17T09:09:36.945Z,98739.25
2022-09-17T09:12:14.866Z,98742.16
2022-09-17T09:14:56.152Z,98739.97
2022-09-17T09:17:26.003Z,98739.53
2022-09-17T09:19:53.877Z,98747.38
2022-09-17T09:22:42.069Z,98747.53
2022-09-17T09:25:21.168Z,98751.69
2022-09-17T09:28:12.348Z,98748.91
2022-09-17T09:31:15.831Z,98747.84
2022-09-17T09:33:47.898Z,98746.16
2022-09-17T09:36:21.899Z,98753.22
2022-09-17T09:39:01.602Z,98756.00
2022-09-17T09:41:43.429Z,98748.97
2022-09-17T09:44:12.891Z,98751.75
2022-09-17T09:47:04.232Z,98752.22
2022-09-17T09:50:00.962Z,98747.94
2022-09-17T09:52:36.370Z,98744.56
2022-09-17T09:55:12.353Z,98749.78
2022-09-17T09:57:52.185Z,98748.72
2022-09-17T10:00:39.910Z,98750.50
2022-09-17T10:03:22.849Z,98763.19
2022-09-17T10:06:12.411Z,98773.28
2022-09-17T10:08:52.138Z,98761.63
2022-09-17T10:11:24.432Z,98765.56
2022-09-17T10:13:51.787Z,98772.19
2022-09-17T10:16:27.688Z,98787.69
2022-09-17T10:19:06.620Z,98797.41
2022-09-17T10:21:39.492Z,98798.91
2022-09-17T10:24:26.942Z,98798.03
2022-09-17T10:27:02.290Z,98796.78
2022-09-17T10:29:29.058Z,98806.72
2022-09-17T10:31:57.946Z,98811.09
2022-09-17T10:34:27.513Z,98819.75
2022-09-17T10:36:58.517Z,98812.84
2022-09-17T10:39:25.134Z,98812.44
2022-09-17T10:42:03.973Z,98812.88
2022-09-17T10:44:36.730Z,98805.09
2022-09-17T10:47:13.473Z,98803.91
2022-09-17T10:49:44.074Z,98799.13
2022-09-17T10:52:12.948Z,98795.41
2022-09-17T10:55:17.002Z,98800.22
2022-09-17T10:58:04.793Z,98798.28
2022-09-17T11:01:03.554Z,98799.03
2022-09-17T11:03:48.789Z,98801.22
2022-09-17T11:06:59.020Z,98789.66
2022-09-17T11:09:41.584Z,98797.34
2022-09-17T11:12:14.021Z,98792.78
2022-09-17T11:15:14.827Z,98797.28
2022-09-17T11:17:51.033Z,98789.94
2022-09-17T11:20:32.757Z,98796.72
2022-09-17T11:23:27.249Z,98789.84
2022-09-17T11:26:00.685Z,98785.16
2022-09-17T11:28:42.974Z,98785.88
2022-09-17T11:31:24.832Z,98789.00
2022-09-17T11:34:11.794Z,98786.16
2022-09-17T11:36:53.364Z,98779.19
2022-09-17T11:39:36.665Z,98782.06
2022-09-17T11:42:10.844Z,98782.25
2022-09-17T11:44:45.725Z,98784.56
2022-09-17T11:47:24.035Z,98770.25
2022-09-17T11:50:00.985Z,98766.94
2022-09-17T11:52:33.767Z,98767.28
2022-09-17T11:55:18.094Z,98760.22
2022-09-17T11:57:45.626Z,98757.06
2022-09-17T12:00:19.765Z,98764.88
2022-09-17T12:03:13.716Z,98760.25
2022-09-17T12:05:46.562Z,98756.34
2022-09-17T12:08:25.162Z,98762.72
2022-09-17T12:11:00.235Z,98749.91
2022-09-17T12:13:34.460Z,98755.44
2022-09-17T12:16:11.905Z,98748.16
2022-09-17T12:18:48.601Z,98745.38
2022-09-17T12:21:19.985Z,98736.38
2022-09-17T12:24:13.003Z,98740.94
2022-09-17T12:26:54.761Z,98737.34
2022-09-17T12:29:42.876Z,98744.28
2022-09-17T12:32:28.220Z,98741.81
2022-09-17T12:35:17.757Z,98734.78
2022-09-17T12:38:13.541Z,98732.00
2022-09-17T12:40:55.286Z,98728.66
2022-09-17T12:43:30.792Z,98735.06
2022-09-17T12:46:26.262Z,98737.72
2022-09-17T12:49:19.642Z,98733.22
2022-09-17T12:52:02.018Z,98735.16
2022-09-17T12:54:53.474Z,98726.00
2022-09-17T12:57:35.890Z,98722.91
2022-09-17T13:00:08.220Z,98715.53
2022-09-17T13:02:48.021Z,98707.66
2022-09-17T13:06:09.125Z,98695.09
2022-09-17T13:09:00.923Z,98697.81
2022-09-17T13:11:50.498Z,98704.84
2022-09-17T13:14:36.082Z,98699.13
2022-09-17T13:17:25.864Z,98697.03
2022-09-17T13:20:04.684Z,98706.28
2022-09-17T13:22:34.413Z,98697.97
2022-09-17T13:25:07.859Z,98689.47
2022-09-17T13:27:37.589Z,98684.38
2022-09-17T13:30:08.733Z,98694.47
2022-09-17T13:32:35.351Z,98682.19
2022-09-17T13:35:13.896Z,98684.59
2022-09-17T13:37:45.459Z,98685.13
2022-09-17T13:40:33.147Z,98699.72
2022-09-17T13:43:02.756Z,98688.16
2022-09-17T13:45:30.110Z,98699.53
2022-09-17T13:48:02.041Z,98695.97
2022-09-17T13:50:38.723Z,98694.00
2022-09-17T13:53:14.340Z,98692.97
2022-09-17T13:55:52.122Z,98691.50
2022-09-17T13:58:18.830Z,98682.75
2022-09-17T14:01:04.617Z,98687.22
2022-09-17T14:03:31.258Z,98690.59
2022-09-17T14:06:22.088Z,98694.28
2022-09-17T14:08:50.466Z,98692.97
2022-09-17T14:11:23.387Z,98697.06
2022-09-17T14:13:53.454Z,98696.31
2022-09-17T14:16:35.616Z,98690.09
2022-09-17T14:19:18.607Z,98689.78
2022-09-17T14:21:57.328Z,98693.97
2022-09-17T14:24:26.680Z,98694.91
2022-09-17T14:27:09.014Z,98700.38
2022-09-17T14:29:43.631Z,98703.97
2022-09-17T14:32:17.212Z,98709.28
2022-09-17T14:34:43.858Z,98700.47
2022-09-17T14:37:17.485Z,98707.78
2022-09-17T14:39:44.641Z,98699.44
2022-09-17T14:42:24.632Z,98712.66
2022-09-17T14:45:19.848Z,98715.38
2022-09-17T14:47:46.404Z,98705.66
2022-09-17T14:50:24.925Z,98716.41
2022-09-17T14:52:54.785Z,98714.03
2022-09-17T14:55:31.791Z,98712.25
2022-09-17T14:58:04.711Z,98712.44
2022-09-17T15:00:37.739Z,98710.16
2022-09-17T15:03:04.707Z,98709.28
2022-09-17T15:05:36.660Z,98715.34
2022-09-17T15:08:19.031Z,98707.06
2022-09-17T15:10:52.488Z,98716.38
2022-09-17T15:13:25.315Z,98716.88
2022-09-17T15:15:55.630Z,98726.84
2022-09-17T15:18:33.874Z,98731.38
2022-09-17T15:21:03.678Z,98734.34
2022-09-17T15:23:33.740Z,98730.47
2022-09-17T15:26:03.109Z,98726.63
2022-09-17T15:28:41.572Z,98716.81
2022-09-17T15:31:18.179Z,98720.88
2022-09-17T15:33:46.047Z,98715.94
2022-09-17T15:36:23.814Z,98718.66
2022-09-17T15:38:51.133Z,98718.00
2022-09-17T15:41:27.978Z,98718.13
2022-09-17T15:44:03.693Z,98723.09
2022-09-17T15:46:39.997Z,98718.66
2022-09-17T15:49:28.356Z,98718.31
2022-09-17T15:51:55.006Z,98731.44
2022-09-17T15:54:32.668Z,98730.31
2022-09-17T15:57:03.707Z,98719.97
2022-09-17T15:59:33.333Z,98721.59
2022-09-17T16:02:01.964Z,98719.91
2022-09-17T16:04:32.845Z,98729.06
2022-09-17T16:07:11.606Z,98727.41
2022-09-17T16:09:39.543Z,98731.66
2022-09-17T16:12:06.416Z,98733.53
2022-09-17T16:14:33.107Z,98734.56
2022-09-17T16:17:08.676Z,98722.88
2022-09-17T16:19:35.273Z,98726.72
2022-09-17T16:22:01.869Z,98728.63
2022-09-17T16:24:28.294Z,98725.25
2022-09-17T16:26:55.020Z,98724.34
2022-09-17T16:29:22.230Z,98728.00
2022-09-17T16:31:50.808Z,98730.88
2022-09-17T16:34:17.686Z,98724.31
2022-09-17T16:36:44.181Z,98718.72
2022-09-17T16:39:10.661Z,98732.31
2022-09-17T16:41:37.189Z,98726.63
2022-09-17T16:44:03.937Z,98730.72
2022-09-17T16:46:30.578Z,98727.84
2022-09-17T16:48:57.369Z,98729.03
2022-09-17T16:51:23.868Z,98731.22
2022-09-17T16:53:50.376Z,98733.38
2022-09-17T16:56:17.162Z,98790.41
2022-09-17T16:58:43.663Z,98809.88
2022-09-17T17:01:15.298Z,98807.72
2022-09-17T17:03:42.594Z,98803.16
2022-09-17T17:06:16.779Z,98797.47
2022-09-17T17:08:43.284Z,98794.22
2022-09-17T17:11:09.819Z,98799.09
2022-09-17T17:13:36.585Z,98800.13
2022-09-17T17:16:11.175Z,98793.38
2022-09-17T17:18:37.891Z,98797.06
2022-09-17T17:21:09.350Z,98797.69
2022-09-17T17:23:35.927Z,98798.09
2022-09-17T17:26:03.682Z,98799.28
2022-09-17T17:28:37.934Z,98805.13
2022-09-17T17:31:05.660Z,98804.06
2022-09-17T17:33:32.400Z,98799.97
2022-09-17T17:36:07.826Z,98795.69
2022-09-17T17:38:35.669Z,98798.13
2022-09-17T17:41:14.187Z,98799.09
2022-09-17T17:43:41.703Z,98797.22
2022-09-17T17:46:10.272Z,98807.81
2022-09-17T17:48:37.540Z,98810.84
2022-09-17T17:51:06.432Z,98814.09
2022-09-17T17:53:33.625Z,98818.56
2022-09-17T17:56:02.023Z,98812.84
2022-09-17T17:58:29.311Z,98815.03
2022-09-17T18:00:56.041Z,98813.81
2022-09-17T18:03:25.140Z,98821.31
2022-09-17T18:05:53.723Z,98821.25
2022-09-17T18:08:20.288Z,98815.75
2022-09-17T18:10:55.299Z,98825.28
2022-09-17T18:13:23.430Z,98828.31
2022-09-17T18:15:55.425Z,98830.13
2022-09-17T18:18:23.665Z,98837.44
2022-09-17T18:20:53.206Z,98831.53
2022-09-17T18:23:20.782Z,98838.66
2022-09-17T18:25:55.144Z,98841.47
2022-09-17T18:28:22.509Z,98841.47
2022-09-17T18:30:49.696Z,98842.91
2022-09-17T18:33:25.129Z,98841.28
2022-09-17T18:35:57.182Z,98850.84
2022-09-17T18:38:24.352Z,98852.69
2022-09-17T18:40:51.761Z,98859.59
2022-09-17T18:43:18.739Z,98861.22
2022-09-17T18:45:55.802Z,98864.88
2022-09-17T18:48:23.519Z,98872.00
2022-09-17T18:51:02.058Z,98877.31
2022-09-17T18:53:30.907Z,98874.44
2022-09-17T18:56:06.660Z,98880.75
2022-09-17T18:58:34.091Z,98878.94
2022-09-17T19:01:00.673Z,98885.03
2022-09-17T19:03:31.757Z,98890.31
2022-09-17T19:06:03.279Z,98899.06
2022-09-17T19:08:29.922Z,98887.88
2022-09-17T19:10:57.961Z,98893.53
2022-09-17T19:13:26.653Z,98893.91
2022-09-17T19:15:58.225Z,98905.50
2022-09-17T19:18:24.960Z,98905.06
2022-09-17T19:20:51.533Z,98910.34
2022-09-17T19:23:18.053Z,98912.19
2022-09-17T19:25:44.496Z,98907.72
2022-09-17T19:28:10.965Z,98910.19
2022-09-17T19:30:37.462Z,98918.72
2022-09-17T19:33:04.650Z,98918.72
2022-09-17T19:35:31.492Z,98913.81
2022-09-17T19:37:58.727Z,98921.94
2022-09-17T19:40:25.812Z,98931.72
2022-09-17T19:42:54.049Z,98922.31
2022-09-17T19:45:22.351Z,98921.88
2022-09-17T19:47:48.981Z,98933.47
2022-09-17T19:50:16.121Z,98935.50
2022-09-17T19:52:42.609Z,98932.84
2022-09-17T19:55:12.778Z,98941.75
2022-09-17T19:57:41.419Z,98948.72
2022-09-17T20:00:11.678Z,98948.31
2022-09-17T20:02:38.707Z,98952.22
2022-09-17T20:05:05.550Z,98952.03
2022-09-17T20:07:32.173Z,98948.59
2022-09-17T20:09:59.477Z,98948.75
2022-09-17T20:12:26.025Z,98946.94
2022-09-17T20:14:52.565Z,98941.03
2022-09-17T20:17:19.129Z,98942.22
2022-09-17T20:19:45.584Z,98945.25
2022-09-17T20:22:12.069Z,98950.91
2022-09-17T20:24:38.535Z,98950.09
2022-09-17T20:27:05.184Z,98951.06
2022-09-17T20:29:31.625Z,98953.31
2022-09-17T20:31:58.107Z,98950.22
2022-09-17T20:34:24.594Z,98951.75
2022-09-17T20:37:01.975Z,98956.44
2022-09-17T20:39:37.615Z,98955.19
2022-09-17T20:42:04.200Z,98954.53
2022-09-17T20:44:30.917Z,98953.72
2022-09-17T20:46:57.826Z,98956.56
2022-09-17T20:49:24.324Z,98954.28
2022-09-17T20:51:51.715Z,98958.94
2022-09-17T20:54:18.221Z,98950.13
2022-09-17T20:56:44.922Z,98961.59
2022-09-17T20:59:15.347Z,98960.56
2022-09-17T21:01:45.159Z,98955.53
2022-09-17T21:04:14.601Z,98952.16
2022-09-17T21:06:42.649Z,98955.06
2022-09-17T21:09:12.136Z,98954.69
2022-09-17T21:11:38.800Z,98958.75
2022-09-17T21:14:05.738Z,98958.41
2022-09-17T21:16:32.429Z,98963.69
2022-09-17T21:19:04.261Z,98968.97
2022-09-17T21:21:34.293Z,98967.94
2022-09-17T21:24:06.085Z,98966.94
2022-09-17T21:26:35.335Z,98964.13
2022-09-17T21:29:02.235Z,98964.13
2022-09-17T21:31:32.933Z,98959.66
2022-09-17T21:34:02.038Z,98967.78
2022-09-17T21:36:30.975Z,98957.59
2022-09-17T21:39:00.089Z,98964.69
2022-09-17T21:41:26.868Z,98968.16
2022-09-17T21:43:53.735Z,98969.34
2022-09-17T21:46:27.612Z,98963.03
2022-09-17T21:48:55.892Z,98969.16
2022-09-17T21:51:26.478Z,98969.78
2022-09-17T21:53:55.215Z,98975.50
2022-09-17T21:56:22.347Z,98977.16
2022-09-17T21:58:54.620Z,98966.56
2022-09-17T22:01:24.659Z,98968.19
2022-09-17T22:03:51.224Z,98962.53
2022-09-17T22:06:21.377Z,98961.34
2022-09-17T22:08:49.318Z,98976.66
2022-09-17T22:11:19.131Z,98972.41
2022-09-17T22:13:57.336Z,98972.06
2022-09-17T22:16:26.798Z,98979.41
2022-09-17T22:18:53.545Z,98978.22
2022-09-17T22:21:22.665Z,98974.56
2022-09-17T22:23:50.748Z,98976.63
2022-09-17T22:26:18.727Z,98984.19
2022-09-17T22:28:45.271Z,98983.19
2022-09-17T22:31:12.886Z,98977.72
2022-09-17T22:33:45.112Z,98972.22
2022-09-17T22:36:14.405Z,98973.84
2022-09-17T22:38:42.038Z,98976.50
2022-09-17T22:41:13.769Z,98974.69
2022-09-17T22:43:40.437Z,98964.75
2022-09-17T22:46:19.830Z,98971.03
2022-09-17T22:48:47.195Z,98964.09
2022-09-17T22:51:14.859Z,98966.56
2022-09-17T22:53:42.774Z,98956.56
2022-09-17T22:56:13.173Z,98962.84
2022-09-17T22:58:40.432Z,98966.94
2022-09-17T23:01:16.286Z,98958.00
2022-09-17T23:03:43.851Z,98955.53
2022-09-17T23:06:12.736Z,98955.09
2022-09-17T23:08:40.105Z,98952.66
2022-09-17T23:11:09.421Z,98947.75
2022-09-17T23:13:36.234Z,98955.84
2022-09-17T23:16:04.506Z,98948.94
2022-09-17T23:18:31.856Z,98944.66
2022-09-17T23:21:00.959Z,98941.19
2022-09-17T23:23:27.840Z,98943.19
2022-09-17T23:25:55.294Z,98949.72
2022-09-17T23:28:22.700Z,98952.53
2022-09-17T23:30:49.657Z,98960.28
2022-09-17T23:33:16.221Z,98956.63
2022-09-17T23:35:42.837Z,98958.25
2022-09-17T23:38:09.528Z,98957.06
2022-09-17T23:40:36.123Z,98964.44
2022-09-17T23:43:02.711Z,98960.78
2022-09-17T23:45:31.827Z,98966.69
2022-09-17T23:47:58.406Z,98974.44
2022-09-17T23:50:25.971Z,98969.97
2022-09-17T23:52:52.741Z,98970.59
2022-09-17T23:55:19.414Z,98968.41
2022-09-17T23:57:46.035Z,98960.63
